Time;durP1;ratioP1;P1;durP2;ratioP2;P2;SDS_P1;SDS_P2;PMS_P1;PMS_P2;Temp;Humidity;BMP_temperature;BMP_pressure;BME280_temperature;BME280_humidity;BME280_pressure;Samples;Min_cycle;Max_cycle;Signal;HPM_P1;HPM_P2
2021/07/02 00:01:11;;;;;;;;;;;;;;;;;;5120798;27;19959;-81
2021/07/02 00:04:06;;;;;;;;;;;;;;;;;;4847017;27;7627594;-82
2021/07/02 00:07:02;;;;;;;;;;;;;;;;;;5049547;27;2227178;-81
2021/07/02 00:10:14;;;;;;;;;;;;;;;;;;5089882;27;19944;-82
2021/07/02 00:13:15;;;;;;;;;;;;;;;;;;5102819;27;20760;-81
2021/07/02 00:16:04;;;;;;;;;;;;;;;;;;5069846;27;20019;-80
2021/07/02 00:18:45;;;;;;;;;;;;;;;;;;5071771;27;20436;-81
2021/07/02 00:21:27;;;;;;;;;;;;;;;;;;5032907;27;19929;-81
2021/07/02 00:24:15;;;;;;;;;;;;;;;;;;5071762;27;20506;-81
2021/07/02 00:27:00;;;;;;;;;;;;;;;;;;5090137;27;19924;-80
2021/07/02 00:29:48;;;;;;;;;;;;;;;;;;5121836;27;19952;-81
2021/07/02 00:32:42;;;;;;;;;;;;;;;;;;5088401;27;19975;-81
2021/07/02 00:35:33;;;;;;;;;;;;;;;;;;5060387;27;19925;-82
2021/07/02 00:38:14;;;;;;;;;;;;;;;;;;5090869;27;19913;-81
2021/07/02 00:40:56;;;;;;;;;;;;;;;;;;5114460;27;19934;-81
2021/07/02 00:43:38;;;;;;;;;;;;;;;;;;5093705;28;19973;-91
2021/07/02 00:46:19;;;;;;;;;;;;;;;;;;5140154;27;19928;-82
2021/07/02 00:49:00;;;;;;;;;;;;;;;;;;5098470;27;20024;-82
2021/07/02 00:51:42;;;;;;;;;;;;;;;;;;5101854;27;20389;-82
2021/07/02 00:54:23;;;;;;;;;;;;;;;;;;5114586;27;20658;-80
2021/07/02 00:57:18;;;;;;;;;;;;;;;;;;5043458;27;19997;-81
2021/07/02 01:00:01;;;;;;;;;;;;;;;;;;5060443;27;19956;-83
2021/07/02 01:02:49;;;;;;;;;;;;;;;;;;5075292;27;19956;-83
2021/07/02 01:05:34;;;;;;;;;;;;;;;;;;5073499;27;20027;-84
2021/07/02 01:08:18;;;;;;;;;;;;;;;;;;5123468;27;20469;-80
2021/07/02 01:10:58;;;;;;;;;;;;;;;;;;5039460;27;1955668;-81
2021/07/02 01:13:43;;;;;;;;;;;;;;;;;;5102593;27;20587;-82
2021/07/02 01:16:26;;;;;;;;;;;;;;;;;;5096437;27;19983;-81
2021/07/02 01:19:13;;;;;;;;;;;;;;;;;;5033801;27;19953;-80
2021/07/02 01:21:57;;;;;;;;;;;;;;;;;;5095313;27;19966;-80
2021/07/02 01:24:45;;;;;;;;;;;;;;;;;;5107776;27;20041;-80
2021/07/02 01:27:38;;;;;;;;;;;;;;;;;;5112328;27;19992;-80
2021/07/02 01:30:22;;;;;;;;;;;;;;;;;;5056276;27;19925;-81
2021/07/02 01:33:03;;;;;;;;;;;;;;;;;;5035157;28;20014;-80
2021/07/02 01:35:47;;;;;;;;;;;;;;;;;;5138159;27;19943;-81
2021/07/02 01:38:35;;;;;;;;;;;;;;;;;;5122594;27;20504;-82
2021/07/02 01:41:19;;;;;;;;;;;;;;;;;;5075012;27;19932;-81
2021/07/02 01:44:02;;;;;;;;;;;;;;;;;;5077026;28;19986;-82
2021/07/02 01:47:13;;;;;;;;;;;;;;;;;;5082295;27;20424;-83
2021/07/02 01:50:02;;;;;;;;;;;;;;;;;;5009313;28;19949;-80
2021/07/02 01:52:50;;;;;;;;;;;;;;;;;;5094019;27;20013;-83
2021/07/02 01:55:34;;;;;;;;;;;;;;;;;;5101957;27;20023;-82
2021/07/02 01:58:17;;;;;;;;;;;;;;;;;;5122563;27;19915;-81
2021/07/02 02:01:19;;;;;;;;;;;;;;;;;;5105705;27;21014;-85
2021/07/02 02:04:02;;;;;;;;;;;;;;;;;;5172154;27;19956;-90
2021/07/02 02:06:57;;;;;;;;;;;;;;;;;;4951851;27;5853576;-84
2021/07/02 02:09:38;;;;;;;;;;;;;;;;;;5060651;27;1992039;-83
2021/07/02 02:12:19;;;;;;;;;;;;;;;;;;5077065;27;19955;-83
2021/07/02 02:15:07;;;;;;;;;;;;;;;;;;5078768;27;19978;-83
2021/07/02 02:18:05;;;;;;;;;;;;;;;;;;5076863;28;19952;-82
2021/07/02 02:20:54;;;;;;;;;;;;;;;;;;5100248;27;20058;-81
2021/07/02 02:23:39;;;;;;;;;;;;;;;;;;5161371;27;19911;-91
2021/07/02 02:26:21;;;;;;;;;;;;;;;;;;5153243;27;19907;-83
2021/07/02 02:29:02;;;;;;;;;;;;;;;;;;5124673;27;20456;-81
2021/07/02 02:31:46;;;;;;;;;;;;;;;;;;5104747;27;19916;-81
2021/07/02 02:34:32;;;;;;;;;;;;;;;;;;5020832;28;20385;-82
2021/07/02 02:37:15;;;;;;;;;;;;;;;;;;5139165;27;19967;-84
2021/07/02 02:39:56;;;;;;;;;;;;;;;;;;5133119;27;19948;-81
2021/07/02 02:42:38;;;;;;;;;;;;;;;;;;5092677;27;19959;-81
2021/07/02 02:45:23;;;;;;;;;;;;;;;;;;5147108;27;19963;-82
2021/07/02 02:48:11;;;;;;;;;;;;;;;;;;5051689;28;19955;-81
2021/07/02 02:50:52;;;;;;;;;;;;;;;;;;5059048;28;19917;-82
2021/07/02 02:53:34;;;;;;;;;;;;;;;;;;5140736;27;19964;-80
2021/07/02 02:56:17;;;;;;;;;;;;;;;;;;5106368;27;19969;-81
2021/07/02 02:58:58;;;;;;;;;;;;;;;;;;5099421;27;20012;-81
2021/07/02 03:01:42;;;;;;;;;;;;;;;;;;5029010;27;19949;-83
2021/07/02 03:04:29;;;;;;;;;;;;;;;;;;5078703;27;19982;-81
2021/07/02 03:07:11;;;;;;;;;;;;;;;;;;5076759;27;20008;-81
2021/07/02 03:09:59;;;;;;;;;;;;;;;;;;5076526;27;19963;-81
2021/07/02 03:12:47;;;;;;;;;;;;;;;;;;5046130;28;19925;-81
2021/07/02 03:15:33;;;;;;;;;;;;;;;;;;5110089;27;19973;-81
2021/07/02 03:18:16;;;;;;;;;;;;;;;;;;5079957;27;19921;-81
2021/07/02 03:21:03;;;;;;;;;;;;;;;;;;5114672;27;20232;-81
2021/07/02 03:23:47;;;;;;;;;;;;;;;;;;5118513;27;19924;-81
2021/07/02 03:26:32;;;;;;;;;;;;;;;;;;5134098;27;20397;-80
2021/07/02 03:29:16;;;;;;;;;;;;;;;;;;5097056;28;19970;-90
2021/07/02 03:31:58;;;;;;;;;;;;;;;;;;5126834;27;20000;-79
2021/07/02 03:34:44;;;;;;;;;;;;;;;;;;5159568;27;19951;-80
2021/07/02 03:37:29;;;;;;;;;;;;;;;;;;5125477;27;19985;-81
2021/07/02 03:40:11;;;;;;;;;;;;;;;;;;5084538;27;19962;-82
2021/07/02 03:42:58;;;;;;;;;;;;;;;;;;5066094;27;19916;-82
2021/07/02 03:45:52;;;;;;;;;;;;;;;;;;5085252;28;20423;-80
2021/07/02 03:48:35;;;;;;;;;;;;;;;;;;5034414;27;2041579;-83
2021/07/02 03:51:15;;;;;;;;;;;;;;;;;;5035394;28;19957;-80
2021/07/02 03:54:03;;;;;;;;;;;;;;;;;;5085942;27;19959;-82
2021/07/02 04:00:00;;;;;;;;;;;;;;;;;;5037057;27;2018061;-82
2021/07/02 04:02:48;;;;;;;;;;;;;;;;;;5100743;27;19920;-79
2021/07/02 04:05:45;;;;;;;;;;;;;;;;;;5098673;27;19981;-80
2021/07/02 04:08:29;;;;;;;;;;;;;;;;;;5124113;27;19969;-81
2021/07/02 04:11:10;;;;;;;;;;;;;;;;;;5057481;27;20013;-81
2021/07/02 04:13:51;;;;;;;;;;;;;;;;;;5070862;27;19916;-80
2021/07/02 04:16:33;;;;;;;;;;;;;;;;;;5119404;27;19920;-80
2021/07/02 04:19:20;;;;;;;;;;;;;;;;;;5113092;27;19927;-81
2021/07/02 04:22:04;;;;;;;;;;;;;;;;;;5114189;27;20657;-82
2021/07/02 04:24:45;;;;;;;;;;;;;;;;;;5115542;27;19947;-83
2021/07/02 04:27:32;;;;;;;;;;;;;;;;;;5088368;27;20073;-81
2021/07/02 04:30:20;;;;;;;;;;;;;;;;;;5026555;27;19965;-80
2021/07/02 04:33:04;;;;;;;;;;;;;;;;;;5106355;27;19966;-80
2021/07/02 04:36:01;;;;;;;;;;;;;;;;;;5054347;27;19963;-81
2021/07/02 04:38:43;;;;;;;;;;;;;;;;;;5128943;27;19995;-81
2021/07/02 04:41:24;;;;;;;;;;;;;;;;;;5078572;27;20015;-79
2021/07/02 04:44:05;;;;;;;;;;;;;;;;;;5096318;27;19951;-80
2021/07/02 04:46:54;;;;;;;;;;;;;;;;;;5084113;27;19920;-83
2021/07/02 04:50:01;;;;;;;;;;;;;;;;;;5087376;27;20013;-81
2021/07/02 04:52:43;;;;;;;;;;;;;;;;;;5119509;27;19916;-81
2021/07/02 04:55:24;;;;;;;;;;;;;;;;;;5143860;27;19957;-79
2021/07/02 04:58:07;;;;;;;;;;;;;;;;;;5065115;28;20395;-81
2021/07/02 05:00:51;;;;;;;;;;;;;;;;;;5120410;27;19969;-82
2021/07/02 05:03:32;;;;;;;;;;;;;;;;;;5079571;27;19956;-81
2021/07/02 05:06:18;;;;;;;;;;;;;;;;;;5117269;27;20526;-84
2021/07/02 05:09:05;;;;;;;;;;;;;;;;;;5119767;27;20408;-81
2021/07/02 05:12:36;;;;;;;;;;;;;;;;;;5115830;27;20040;-84
2021/07/02 05:15:27;;;;;;;;;;;;;;;;;;5115322;27;20243;-81
2021/07/02 05:18:10;;;;;;;;;;;;;;;;;;5098785;27;20569;-83
2021/07/02 05:20:52;;;;;;;;;;;;;;;;;;5142643;27;19923;-80
2021/07/02 05:23:34;;;;;;;;;;;;;;;;;;5076664;28;19982;-81
2021/07/02 05:26:15;;;;;;;;;;;;;;;;;;5094257;27;19974;-81
2021/07/02 05:28:57;;;;;;;;;;;;;;;;;;5060315;28;19960;-82
2021/07/02 05:31:40;;;;;;;;;;;;;;;;;;5033619;27;20394;-81
2021/07/02 05:34:21;;;;;;;;;;;;;;;;;;5151622;27;20357;-80
2021/07/02 05:37:03;;;;;;;;;;;;;;;;;;5060396;28;19917;-80
2021/07/02 05:39:58;;;;;;;;;;;;;;;;;;5075058;27;20458;-80
2021/07/02 05:42:40;;;;;;;;;;;;;;;;;;5092806;27;19943;-89
2021/07/02 05:45:21;;;;;;;;;;;;;;;;;;5081208;27;19952;-81
2021/07/02 05:48:03;;;;;;;;;;;;;;;;;;5099052;27;19916;-82
2021/07/02 05:50:44;;;;;;;;;;;;;;;;;;5128700;27;19982;-83
2021/07/02 05:53:26;;;;;;;;;;;;;;;;;;5140730;27;19916;-80
2021/07/02 05:56:10;;;;;;;;;;;;;;;;;;5117969;27;19924;-82
2021/07/02 05:58:52;;;;;;;;;;;;;;;;;;5069819;27;19921;-81
2021/07/02 06:01:33;;;;;;;;;;;;;;;;;;5082830;27;19924;-82
2021/07/02 06:04:15;;;;;;;;;;;;;;;;;;5129402;27;20614;-79
2021/07/02 06:06:56;;;;;;;;;;;;;;;;;;5088036;27;19940;-79
2021/07/02 06:09:38;;;;;;;;;;;;;;;;;;5055718;28;20007;-81
2021/07/02 06:12:33;;;;;;;;;;;;;;;;;;5067692;28;19970;-81
2021/07/02 06:15:15;;;;;;;;;;;;;;;;;;5042458;27;19925;-80
2021/07/02 06:18:07;;;;;;;;;;;;;;;;;;5158096;27;19945;-79
2021/07/02 06:20:52;;;;;;;;;;;;;;;;;;5105164;27;19928;-82
2021/07/02 06:23:35;;;;;;;;;;;;;;;;;;5121287;27;19916;-82
2021/07/02 06:26:17;;;;;;;;;;;;;;;;;;5138888;27;19952;-79
2021/07/02 06:29:04;;;;;;;;;;;;;;;;;;5087746;27;19973;-81
2021/07/02 06:31:46;;;;;;;;;;;;;;;;;;5113908;27;20389;-78
2021/07/02 06:34:27;;;;;;;;;;;;;;;;;;5089880;27;19982;-82
2021/07/02 06:37:10;;;;;;;;;;;;;;;;;;5059178;27;2273296;-81
2021/07/02 06:39:58;;;;;;;;;;;;;;;;;;5073331;27;20253;-81
2021/07/02 06:42:56;;;;;;;;;;;;;;;;;;5064772;27;19928;-82
2021/07/02 06:45:37;;;;;;;;;;;;;;;;;;5141457;27;19951;-82
2021/07/02 06:48:18;;;;;;;;;;;;;;;;;;5088293;27;20350;-79
2021/07/02 06:51:15;;;;;;;;;;;;;;;;;;5095676;27;19960;-79
2021/07/02 06:53:56;;;;;;;;;;;;;;;;;;5114370;27;19966;-80
2021/07/02 06:57:00;;;;;;;;;;;;;;;;;;5122458;27;19947;-79
2021/07/02 06:59:42;;;;;;;;;;;;;;;;;;5100221;27;20452;-81
2021/07/02 07:02:23;;;;;;;;;;;;;;;;;;5036173;28;19987;-81
2021/07/02 07:05:06;;;;;;;;;;;;;;;;;;5067154;28;19978;-80
2021/07/02 07:07:59;;;;;;;;;;;;;;;;;;5047246;28;20398;-81
2021/07/02 07:22:20;;;;;;;;;;;;;;;;;;5101122;27;19952;-80
2021/07/02 07:25:01;;;;;;;;;;;;;;;;;;5107747;27;19973;-82
2021/07/02 07:27:44;;;;;;;;;;;;;;;;;;5084148;27;19971;-82
2021/07/02 07:30:26;;;;;;;;;;;;;;;;;;5152974;27;19972;-83
2021/07/02 07:33:08;;;;;;;;;;;;;;;;;;5125762;27;20003;-80
2021/07/02 07:35:50;;;;;;;;;;;;;;;;;;5099647;27;20387;-79
2021/07/02 07:38:30;;;;;;;;;;;;;;;;;;5127361;27;20290;-79
2021/07/02 07:41:12;;;;;;;;;;;;;;;;;;5084529;27;19966;-81
2021/07/02 07:43:54;;;;;;;;;;;;;;;;;;5105700;27;20089;-77
2021/07/02 07:46:35;;;;;;;;;;;;;;;;;;5122615;27;20109;-78
2021/07/02 07:49:16;;;;;;;;;;;;;;;;;;5097513;27;19974;-79
2021/07/02 07:52:00;;;;;;;;;;;;;;;;;;5114098;27;20404;-79
2021/07/02 07:54:41;;;;;;;;;;;;;;;;;;5155933;27;19927;-81
2021/07/02 07:57:23;;;;;;;;;;;;;;;;;;5053482;28;19917;-83
2021/07/02 08:00:07;;;;;;;;;;;;;;;;;;5049251;27;19928;-81
2021/07/02 08:02:59;;;;;;;;;;;;;;;;;;5087346;27;20014;-81
2021/07/02 08:05:41;;;;;;;;;;;;;;;;;;5144060;27;19993;-89
2021/07/02 08:08:24;;;;;;;;;;;;;;;;;;5083766;27;20217;-81
2021/07/02 08:11:17;;;;;;;;;;;;;;;;;;5107802;27;19980;-81
2021/07/02 08:14:11;;;;;;;;;;;;;;;;;;5049978;27;2038908;-81
2021/07/02 08:17:01;;;;;;;;;;;;;;;;;;4994363;27;4083672;-81
2021/07/02 08:20:11;;;;;;;;;;;;;;;;;;5094336;27;20140;-83
2021/07/02 08:22:58;;;;;;;;;;;;;;;;;;5131144;27;20410;-80
2021/07/02 08:25:40;;;;;;;;;;;;;;;;;;5116061;27;20385;-80
2021/07/02 08:31:08;;;;;;;;;;;;;;;;;;5039318;27;2106367;-81
2021/07/02 08:33:49;;;;;;;;;;;;;;;;;;5081958;28;20401;-79
2021/07/02 08:36:31;;;;;;;;;;;;;;;;;;5095373;27;19963;-80
2021/07/02 08:39:15;;;;;;;;;;;;;;;;;;5023336;27;20011;-79
2021/07/02 08:41:56;;;;;;;;;;;;;;;;;;5073198;27;19938;-80
2021/07/02 08:44:39;;;;;;;;;;;;;;;;;;5090285;27;20023;-80
2021/07/02 08:47:20;;;;;;;;;;;;;;;;;;5118847;27;19955;-80
2021/07/02 08:50:02;;;;;;;;;;;;;;;;;;5102150;27;19947;-80
2021/07/02 08:52:46;;;;;;;;;;;;;;;;;;5108404;27;19915;-80
2021/07/02 08:55:46;;;;;;;;;;;;;;;;;;5051943;27;1944950;-80
2021/07/02 08:58:37;;;;;;;;;;;;;;;;;;5102506;27;20170;-79
2021/07/02 09:04:16;;;;;;;;;;;;;;;;;;5083915;27;20433;-81
2021/07/02 09:07:04;;;;;;;;;;;;;;;;;;5042132;27;1964508;-77
2021/07/02 09:09:48;;;;;;;;;;;;;;;;;;5152949;27;19946;-79
2021/07/02 09:12:35;;;;;;;;;;;;;;;;;;5142603;27;20931;-79
2021/07/02 09:15:17;;;;;;;;;;;;;;;;;;5078754;27;19916;-79
2021/07/02 09:17:59;;;;;;;;;;;;;;;;;;5109269;27;20454;-79
2021/07/02 09:20:54;;;;;;;;;;;;;;;;;;5120507;27;19989;-79
2021/07/02 09:23:39;;;;;;;;;;;;;;;;;;5081349;27;19943;-80
2021/07/02 09:26:33;;;;;;;;;;;;;;;;;;5125711;27;19955;-79
2021/07/02 09:29:16;;;;;;;;;;;;;;;;;;5126584;27;19954;-79
2021/07/02 09:32:01;;;;;;;;;;;;;;;;;;5066345;27;20326;-77
2021/07/02 09:34:49;;;;;;;;;;;;;;;;;;5115669;27;20061;-79
2021/07/02 09:37:32;;;;;;;;;;;;;;;;;;5075048;27;19989;-79
2021/07/02 09:40:14;;;;;;;;;;;;;;;;;;5119487;27;19959;-78
2021/07/02 09:43:00;;;;;;;;;;;;;;;;;;5089700;27;20401;-80
2021/07/02 09:45:49;;;;;;;;;;;;;;;;;;5100687;27;20411;-81
2021/07/02 09:48:26;;;;;;;;;;;;;;;;;;5099534;28;19931;-79
2021/07/02 09:50:55;;;;;;;;;;;;;;;;;;5078809;28;19932;-79
2021/07/02 09:53:25;;;;;;;;;;;;;;;;;;5067905;28;19931;-80
2021/07/02 09:55:53;;;;;;;;;;;;;;;;;;5101724;28;20313;-79
2021/07/02 09:58:22;;;;;;;;;;;;;;;;;;5056157;28;19945;-80
2021/07/02 10:00:52;;;;;;;;;;;;;;;;;;5054970;28;20302;-80
2021/07/02 10:03:23;;;;;;;;;;;;;;;;;;5068038;28;19932;-80
2021/07/02 10:05:53;;;;;;;;;;;;;;;;;;5072196;28;20394;-80
2021/07/02 10:08:22;;;;;;;;;;;;;;;;;;5088403;28;19924;-80
2021/07/02 10:10:50;;;;;;;;;;;;;;;;;;5053081;28;20449;-80
2021/07/02 10:13:20;;;;;;;;;;;;;;;;;;5065713;28;20392;-80
2021/07/02 10:15:49;;;;;;;;;;;;;;;;;;5072703;28;20171;-79
2021/07/02 10:18:19;;;;;;;;;;;;;;;;;;5091969;28;19925;-80
2021/07/02 10:20:47;;;;;;;;;;;;;;;;;;5052700;28;19929;-80
2021/07/02 10:23:17;;;;;;;;;;;;;;;;;;5055251;28;20337;-80
2021/07/02 10:25:45;;;;;;;;;;;;;;;;;;5073438;28;19932;-80
2021/07/02 10:28:16;;;;;;;;;;;;;;;;;;5074838;28;20318;-81
2021/07/02 10:30:44;;;;;;;;;;;;;;;;;;5056118;28;19947;-81
2021/07/02 10:33:13;;;;;;;;;;;;;;;;;;5067451;28;19924;-82
2021/07/02 10:35:58;;;;;;;;;;;;;;;;;;5071000;28;19924;-82
2021/07/02 10:38:56;;;;;;;;;;;;;;;;;;5074498;28;19933;-82
2021/07/02 10:41:37;;;;;;;;;;;;;;;;;;5056245;28;19932;-82
2021/07/02 10:44:06;;;;;;;;;;;;;;;;;;5080159;28;20306;-82
2021/07/02 10:46:37;;;;;;;;;;;;;;;;;;5085023;28;19935;-82
2021/07/02 10:49:07;;;;;;;;;;;;;;;;;;5058777;28;19924;-81
2021/07/02 10:51:47;;;;;;;;;;;;;;;;;;5100585;28;19924;-81
2021/07/02 10:54:31;;;;;;;;;;;;;;;;;;5086118;28;20414;-81
2021/07/02 10:57:01;;;;;;;;;;;;;;;;;;5045394;28;20310;-80
2021/07/02 10:59:44;;;;;;;;;;;;;;;;;;5066999;28;20318;-80
2021/07/02 11:02:16;;;;;;;;;;;;;;;;;;5079334;28;19939;-81
2021/07/02 11:04:45;;;;;;;;;;;;;;;;;;5041737;28;20322;-81
2021/07/02 11:07:30;;;;;;;;;;;;;;;;;;5064521;28;20417;-80
2021/07/02 11:10:00;;;;;;;;;;;;;;;;;;5082128;28;19908;-80
2021/07/02 11:12:30;;;;;;;;;;;;;;;;;;5078109;28;19913;-80
2021/07/02 11:15:27;;;;;;;;;;;;;;;;;;5081282;28;19924;-81
2021/07/02 11:18:39;;;;;;;;;;;;;;;;;;5078163;28;19933;-80
2021/07/02 11:21:14;;;;;;;;;;;;;;;;;;5083775;28;20334;-81
2021/07/02 11:23:45;;;;;;;;;;;;;;;;;;5047660;28;19952;-81
2021/07/02 11:26:29;;;;;;;;;;;;;;;;;;5068311;28;19947;-82
2021/07/02 11:28:59;;;;;;;;;;;;;;;;;;5075701;28;19943;-81
2021/07/02 11:31:35;;;;;;;;;;;;;;;;;;5046350;28;19935;-81
2021/07/02 11:34:10;;;;;;;;;;;;;;;;;;5047825;28;19936;-81
2021/07/02 11:36:38;;;;;;;;;;;;;;;;;;5064170;28;19932;-81
2021/07/02 11:39:06;;;;;;;;;;;;;;;;;;5103878;28;19928;-81
2021/07/02 11:41:35;;;;;;;;;;;;;;;;;;5053935;28;19928;-81
2021/07/02 11:44:05;;;;;;;;;;;;;;;;;;5070346;28;19947;-83
2021/07/02 11:46:33;;;;;;;;;;;;;;;;;;5054393;28;20593;-83
2021/07/02 11:49:02;;;;;;;;;;;;;;;;;;5069163;28;19925;-83
2021/07/02 11:51:30;;;;;;;;;;;;;;;;;;5047521;28;19925;-82
2021/07/02 11:53:59;;;;;;;;;;;;;;;;;;5068162;28;20310;-83
2021/07/02 11:56:28;;;;;;;;;;;;;;;;;;5094611;28;19929;-84
2021/07/02 11:58:58;;;;;;;;;;;;;;;;;;5044768;28;19948;-83
2021/07/02 12:01:42;;;;;;;;;;;;;;;;;;5080850;28;19933;-83
2021/07/02 12:04:47;;;;;;;;;;;;;;;;;;5047825;28;19939;-83
2021/07/02 12:07:16;;;;;;;;;;;;;;;;;;5083782;28;20412;-83
2021/07/02 12:09:48;;;;;;;;;;;;;;;;;;5042982;28;19939;-81
2021/07/02 12:12:19;;;;;;;;;;;;;;;;;;5042896;28;19933;-80
2021/07/02 12:14:47;;;;;;;;;;;;;;;;;;5097711;28;19925;-83
2021/07/02 12:17:18;;;;;;;;;;;;;;;;;;5064223;28;19925;-82
2021/07/02 12:19:47;;;;;;;;;;;;;;;;;;5062826;28;19924;-83
2021/07/02 12:22:16;;;;;;;;;;;;;;;;;;5048835;28;19986;-83
2021/07/02 12:24:45;;;;;;;;;;;;;;;;;;5059339;28;19928;-83
2021/07/02 12:27:13;;;;;;;;;;;;;;;;;;5070244;28;19925;-83
2021/07/02 12:29:42;;;;;;;;;;;;;;;;;;5040873;28;19932;-83
2021/07/02 12:32:11;;;;;;;;;;;;;;;;;;5047147;28;19936;-83
2021/07/02 12:34:47;;;;;;;;;;;;;;;;;;5063485;28;19929;-83
2021/07/02 12:37:38;;;;;;;;;;;;;;;;;;5083448;28;19929;-83
2021/07/02 12:40:25;;;;;;;;;;;;;;;;;;5047605;28;19929;-84
2021/07/02 12:43:00;;;;;;;;;;;;;;;;;;5076965;28;19924;-83
2021/07/02 12:55:33;;;;;;;;;;;;;;;;;;5077071;28;19931;-80
2021/07/02 12:58:01;;;;;;;;;;;;;;;;;;5053364;28;19931;-84
2021/07/02 13:00:31;;;;;;;;;;;;;;;;;;5069818;28;19931;-82
2021/07/02 13:03:00;;;;;;;;;;;;;;;;;;5072072;28;19932;-84
2021/07/02 13:05:29;;;;;;;;;;;;;;;;;;5056123;28;19939;-84
2021/07/02 13:07:59;;;;;;;;;;;;;;;;;;5112000;28;20339;-84
2021/07/02 13:10:32;;;;;;;;;;;;;;;;;;5055232;28;19928;-84
2021/07/02 13:13:01;;;;;;;;;;;;;;;;;;5123780;28;19935;-85
2021/07/02 13:15:30;;;;;;;;;;;;;;;;;;5085207;28;19931;-86
2021/07/02 13:21:01;;;;;;;;;;;;;;;;;;4912439;23;20303;-87
2021/07/02 13:23:31;;;;;;;;;;;;;;;;;;4909422;29;19938;-82
2021/07/02 13:26:21;;;;;;;;;;;;;;;;;;4898141;29;19948;-94
2021/07/02 13:28:50;;;;;;;;;;;;;;;;;;4838293;29;20276;-83
2021/07/02 13:31:19;;;;;;;;;;;;;;;;;;4838511;29;19935;-82
2021/07/02 13:33:58;;;;;;;;;;;;;;;;;;4826447;29;20405;-82
2021/07/02 13:36:30;;;;;;;;;;;;;;;;;;4831341;29;20012;-82
2021/07/02 13:39:10;;;;;;;;;;;;;;;;;;4827445;29;19928;-82
2021/07/02 13:41:41;;;;;;;;;;;;;;;;;;4830307;29;19936;-83
2021/07/02 13:44:10;;;;;;;;;;;;;;;;;;4845853;29;19935;-83
2021/07/02 13:46:39;;;;;;;;;;;;;;;;;;4834520;29;19929;-83
2021/07/02 13:49:09;;;;;;;;;;;;;;;;;;4835528;29;20413;-83
2021/07/02 13:51:40;;;;;;;;;;;;;;;;;;4839879;29;19936;-82
2021/07/02 13:54:15;;;;;;;;;;;;;;;;;;4832888;29;19929;-83
2021/07/02 13:56:49;;;;;;;;;;;;;;;;;;4836812;29;19929;-83
2021/07/02 13:59:52;;;;;;;;;;;;;;;;;;4854473;29;19928;-83
2021/07/02 14:02:53;;;;;;;;;;;;;;;;;;4841796;29;19928;-83
2021/07/02 14:05:33;;;;;;;;;;;;;;;;;;4832488;29;19928;-83
2021/07/02 14:08:22;;;;;;;;;;;;;;;;;;4852760;29;20390;-82
2021/07/02 14:11:01;;;;;;;;;;;;;;;;;;4833983;29;20188;-83
2021/07/02 14:13:40;;;;;;;;;;;;;;;;;;4849135;29;19933;-83
2021/07/02 14:19:42;;;;;;;;;;;;;;;;;;4827809;29;19932;-82
2021/07/02 14:22:24;;;;;;;;;;;;;;;;;;4823536;29;19929;-83
2021/07/02 14:25:09;;;;;;;;;;;;;;;;;;4873020;29;19923;-83
2021/07/02 14:27:51;;;;;;;;;;;;;;;;;;4846556;29;19943;-83
2021/07/02 14:30:25;;;;;;;;;;;;;;;;;;4847137;29;19945;-82
2021/07/02 14:32:56;;;;;;;;;;;;;;;;;;4836735;29;19928;-82
2021/07/02 14:35:24;;;;;;;;;;;;;;;;;;4853148;29;19933;-82
2021/07/02 14:37:52;;;;;;;;;;;;;;;;;;4840894;29;20363;-83
2021/07/02 14:40:20;;;;;;;;;;;;;;;;;;4849157;29;19928;-82
2021/07/02 14:42:51;;;;;;;;;;;;;;;;;;4860464;29;19955;-83
2021/07/02 14:45:20;;;;;;;;;;;;;;;;;;4857076;29;19929;-83
2021/07/02 14:47:49;;;;;;;;;;;;;;;;;;4860008;29;20406;-83
2021/07/02 14:50:18;;;;;;;;;;;;;;;;;;4821916;29;20308;-83
2021/07/02 14:52:46;;;;;;;;;;;;;;;;;;4836367;29;20307;-83
2021/07/02 14:55:15;;;;;;;;;;;;;;;;;;4844501;29;19936;-83
2021/07/02 14:57:43;;;;;;;;;;;;;;;;;;4863614;29;20329;-83
2021/07/02 15:00:14;;;;;;;;;;;;;;;;;;4826790;29;19939;-83
2021/07/02 15:02:42;;;;;;;;;;;;;;;;;;4825809;29;19939;-83
2021/07/02 15:05:11;;;;;;;;;;;;;;;;;;4842441;29;19951;-83
2021/07/02 15:07:39;;;;;;;;;;;;;;;;;;4841040;29;19936;-83
2021/07/02 15:10:08;;;;;;;;;;;;;;;;;;4815919;29;20414;-83
2021/07/02 15:12:36;;;;;;;;;;;;;;;;;;4853320;29;19928;-82
2021/07/02 15:15:05;;;;;;;;;;;;;;;;;;4820549;29;19933;-83
2021/07/02 15:17:35;;;;;;;;;;;;;;;;;;4840970;29;19952;-83
2021/07/02 15:20:03;;;;;;;;;;;;;;;;;;4850000;29;19935;-83
2021/07/02 15:22:32;;;;;;;;;;;;;;;;;;4838823;29;19929;-83
2021/07/02 15:25:00;;;;;;;;;;;;;;;;;;4846536;29;19940;-83
2021/07/02 15:27:29;;;;;;;;;;;;;;;;;;4844798;29;19933;-83
2021/07/02 15:30:16;;;;;;;;;;;;;;;;;;4852090;29;19928;-83
2021/07/02 15:32:46;;;;;;;;;;;;;;;;;;4837965;29;19940;-83
2021/07/02 15:35:14;;;;;;;;;;;;;;;;;;4869792;29;19927;-84
2021/07/02 15:37:44;;;;;;;;;;;;;;;;;;4852337;29;19922;-84
2021/07/02 15:40:12;;;;;;;;;;;;;;;;;;4884266;29;19936;-84
2021/07/02 15:42:40;;;;;;;;;;;;;;;;;;4872278;29;19928;-83
2021/07/02 15:45:10;;;;;;;;;;;;;;;;;;4856131;29;19929;-83
2021/07/02 15:47:38;;;;;;;;;;;;;;;;;;4847690;29;20351;-83
2021/07/02 15:50:08;;;;;;;;;;;;;;;;;;4848804;29;19928;-83
2021/07/02 15:52:37;;;;;;;;;;;;;;;;;;4853283;29;20406;-83
2021/07/02 15:55:07;;;;;;;;;;;;;;;;;;4851463;29;19929;-83
2021/07/02 15:57:35;;;;;;;;;;;;;;;;;;4868310;29;19928;-82
2021/07/02 16:00:03;;;;;;;;;;;;;;;;;;4863996;29;19928;-83
2021/07/02 16:02:40;;;;;;;;;;;;;;;;;;4852579;29;20123;-83
2021/07/02 16:05:11;;;;;;;;;;;;;;;;;;4843700;29;19936;-83
2021/07/02 16:07:39;;;;;;;;;;;;;;;;;;4843438;29;19929;-83
2021/07/02 16:10:07;;;;;;;;;;;;;;;;;;4847920;29;19929;-83
2021/07/02 16:12:35;;;;;;;;;;;;;;;;;;4841303;29;19929;-83
2021/07/02 16:15:05;;;;;;;;;;;;;;;;;;4842784;29;20319;-83
2021/07/02 16:17:33;;;;;;;;;;;;;;;;;;4830366;29;20306;-83
2021/07/02 16:20:01;;;;;;;;;;;;;;;;;;4825805;29;19940;-82
2021/07/02 16:22:32;;;;;;;;;;;;;;;;;;4828766;29;19943;-82
2021/07/02 16:25:00;;;;;;;;;;;;;;;;;;4845997;29;19955;-83
2021/07/02 16:27:28;;;;;;;;;;;;;;;;;;4853899;29;19933;-82
2021/07/02 16:29:56;;;;;;;;;;;;;;;;;;4858016;29;20048;-83
2021/07/02 16:32:25;;;;;;;;;;;;;;;;;;4825979;29;19929;-83
2021/07/02 16:34:53;;;;;;;;;;;;;;;;;;4858271;29;19928;-83
2021/07/02 16:37:21;;;;;;;;;;;;;;;;;;4846757;29;19941;-83
2021/07/02 16:39:51;;;;;;;;;;;;;;;;;;4835864;29;19928;-82
2021/07/02 16:42:19;;;;;;;;;;;;;;;;;;4859594;29;20040;-82
2021/07/02 16:44:47;;;;;;;;;;;;;;;;;;4845543;29;19939;-82
2021/07/02 16:47:15;;;;;;;;;;;;;;;;;;4845071;29;20379;-82
2021/07/02 16:49:43;;;;;;;;;;;;;;;;;;4842590;29;19935;-82
2021/07/02 16:52:13;;;;;;;;;;;;;;;;;;4843103;29;19936;-82
2021/07/02 16:54:41;;;;;;;;;;;;;;;;;;4863185;29;19956;-82
2021/07/02 16:57:11;;;;;;;;;;;;;;;;;;4827762;29;19929;-82
2021/07/02 16:59:39;;;;;;;;;;;;;;;;;;4845250;29;19935;-82
2021/07/02 17:02:07;;;;;;;;;;;;;;;;;;4839754;29;19928;-82
2021/07/02 17:04:38;;;;;;;;;;;;;;;;;;4853646;29;19928;-82
2021/07/02 17:07:06;;;;;;;;;;;;;;;;;;4824888;29;19928;-82
2021/07/02 17:09:35;;;;;;;;;;;;;;;;;;4849288;29;19932;-82
2021/07/02 17:12:03;;;;;;;;;;;;;;;;;;4840937;29;19928;-81
2021/07/02 17:14:33;;;;;;;;;;;;;;;;;;4853574;29;19939;-82
2021/07/02 17:17:02;;;;;;;;;;;;;;;;;;4843531;29;19935;-82
2021/07/02 17:19:30;;;;;;;;;;;;;;;;;;4851677;29;19925;-82
2021/07/02 17:21:59;;;;;;;;;;;;;;;;;;4849289;29;19916;-81
2021/07/02 17:24:28;;;;;;;;;;;;;;;;;;4851592;29;19928;-81
2021/07/02 17:26:56;;;;;;;;;;;;;;;;;;4837135;29;19936;-81
2021/07/02 17:29:24;;;;;;;;;;;;;;;;;;4842968;29;20335;-82
2021/07/02 17:31:53;;;;;;;;;;;;;;;;;;4830252;29;19933;-82
2021/07/02 17:34:22;;;;;;;;;;;;;;;;;;4835212;29;19932;-81
2021/07/02 17:36:50;;;;;;;;;;;;;;;;;;4840684;29;19941;-81
2021/07/02 17:39:19;;;;;;;;;;;;;;;;;;4843804;29;19937;-82
2021/07/02 17:41:48;;;;;;;;;;;;;;;;;;4832397;29;19928;-81
2021/07/02 17:44:17;;;;;;;;;;;;;;;;;;4844344;29;19932;-82
2021/07/02 17:46:46;;;;;;;;;;;;;;;;;;4843371;29;20386;-82
2021/07/02 17:49:15;;;;;;;;;;;;;;;;;;4838243;29;19939;-82
2021/07/02 17:51:43;;;;;;;;;;;;;;;;;;4848507;29;20325;-82
2021/07/02 17:54:12;;;;;;;;;;;;;;;;;;4829736;29;19928;-82
2021/07/02 17:56:40;;;;;;;;;;;;;;;;;;4824687;29;19974;-82
2021/07/02 17:59:08;;;;;;;;;;;;;;;;;;4843357;29;19982;-82
2021/07/02 18:01:37;;;;;;;;;;;;;;;;;;4842281;29;20414;-82
2021/07/02 18:04:05;;;;;;;;;;;;;;;;;;4840007;29;19943;-82
2021/07/02 18:06:35;;;;;;;;;;;;;;;;;;4841709;29;20391;-82
2021/07/02 18:09:03;;;;;;;;;;;;;;;;;;4835000;29;19943;-82
2021/07/02 18:11:31;;;;;;;;;;;;;;;;;;4843830;29;19933;-82
2021/07/02 18:14:00;;;;;;;;;;;;;;;;;;4834900;29;19939;-82
2021/07/02 18:16:29;;;;;;;;;;;;;;;;;;4825345;29;19932;-82
2021/07/02 18:18:58;;;;;;;;;;;;;;;;;;4823159;29;19939;-83
2021/07/02 18:21:26;;;;;;;;;;;;;;;;;;4846937;29;20002;-82
2021/07/02 18:23:56;;;;;;;;;;;;;;;;;;4857278;29;19929;-83
2021/07/02 18:26:24;;;;;;;;;;;;;;;;;;4842677;29;20426;-83
2021/07/02 18:28:54;;;;;;;;;;;;;;;;;;4843557;29;20415;-82
2021/07/02 18:31:22;;;;;;;;;;;;;;;;;;4844650;29;20434;-82
2021/07/02 18:33:50;;;;;;;;;;;;;;;;;;4841423;29;19929;-82
2021/07/02 18:36:18;;;;;;;;;;;;;;;;;;4842269;29;19952;-82
2021/07/02 18:38:46;;;;;;;;;;;;;;;;;;4842337;29;19948;-82